Time;durP1;ratioP1;P1;durP2;ratioP2;P2;SDS_P1;SDS_P2;PMS_P1;PMS_P2;Temp;Humidity;BMP_temperature;BMP_pressure;BME280_temperature;BME280_humidity;BME280_pressure;Samples;Min_cycle;Max_cycle;Signal;HPM_P1;HPM_P2
2022/03/30 00:01:45;;;;;;;0.20;0.20;;;;;;;;;;4957505;29;20202;-69
2022/03/30 00:04:12;;;;;;;1.97;1.67;;;;;;;;;;4957149;29;20241;-70
2022/03/30 00:06:41;;;;;;;7.47;2.67;;;;;;;;;;4956936;29;20191;-69
2022/03/30 00:09:09;;;;;;;0.00;0.00;;;;;;;;;;4957328;29;20206;-69
2022/03/30 00:11:38;;;;;;;0.87;0.87;;;;;;;;;;4957360;29;20203;-69
2022/03/30 00:14:09;;;;;;;4.17;1.40;;;;;;;;;;4957201;29;20202;-69
2022/03/30 00:16:38;;;;;;;2.03;1.93;;;;;;;;;;4957024;29;20202;-69
2022/03/30 00:19:05;;;;;;;1.60;1.50;;;;;;;;;;4956927;29;20209;-68
2022/03/30 00:21:33;;;;;;;0.13;0.13;;;;;;;;;;4957019;29;20195;-69
2022/03/30 00:24:01;;;;;;;0.07;0.07;;;;;;;;;;4956996;29;20195;-69
2022/03/30 00:26:28;;;;;;;1.20;1.13;;;;;;;;;;4957052;29;20202;-71
2022/03/30 00:28:57;;;;;;;0.30;0.30;;;;;;;;;;4956826;29;20195;-71
2022/03/30 00:31:24;;;;;;;0.87;0.87;;;;;;;;;;4956764;29;20206;-70
2022/03/30 00:33:52;;;;;;;0.10;0.10;;;;;;;;;;4956992;29;20545;-70
2022/03/30 00:36:20;;;;;;;0.10;0.10;;;;;;;;;;4956857;29;20199;-71
2022/03/30 00:38:48;;;;;;;2.07;1.87;;;;;;;;;;4956820;29;20575;-70
2022/03/30 00:41:15;;;;;;;2.13;2.00;;;;;;;;;;4956598;29;20233;-70
2022/03/30 00:43:43;;;;;;;0.40;0.40;;;;;;;;;;4956613;29;20282;-70
2022/03/30 00:46:14;;;;;;;0.53;0.50;;;;;;;;;;4956468;29;20191;-70
2022/03/30 00:48:42;;;;;;;0.63;0.63;;;;;;;;;;4956476;29;20195;-70
2022/03/30 00:51:10;;;;;;;0.50;0.50;;;;;;;;;;4956450;29;20222;-69
2022/03/30 00:53:37;;;;;;;1.33;1.20;;;;;;;;;;4956393;29;20199;-69
2022/03/30 00:56:05;;;;;;;0.47;0.13;;;;;;;;;;4956525;29;20195;-69
2022/03/30 00:58:33;;;;;;;2.70;2.03;;;;;;;;;;4956075;29;20621;-69
2022/03/30 01:01:01;;;;;;;0.27;0.27;;;;;;;;;;4956088;28;20233;-70
2022/03/30 01:03:30;;;;;;;2.03;1.97;;;;;;;;;;4956433;29;20297;-69
2022/03/30 01:05:58;;;;;;;1.07;1.03;;;;;;;;;;4956246;29;20659;-70
2022/03/30 01:08:25;;;;;;;0.93;0.93;;;;;;;;;;4956063;29;20285;-70
2022/03/30 01:10:54;;;;;;;3.20;1.50;;;;;;;;;;4955797;29;20660;-70
2022/03/30 01:13:22;;;;;;;0.27;0.27;;;;;;;;;;4955920;29;20191;-70
2022/03/30 01:15:49;;;;;;;0.67;0.17;;;;;;;;;;4955987;29;20605;-68
2022/03/30 01:18:17;;;;;;;1.43;1.13;;;;;;;;;;4956008;29;20199;-69
2022/03/30 01:20:49;;;;;;;0.00;0.00;;;;;;;;;;4955778;29;20226;-70
2022/03/30 01:23:17;;;;;;;1.27;1.00;;;;;;;;;;4955786;29;20206;-69
2022/03/30 01:25:45;;;;;;;0.57;0.57;;;;;;;;;;4955769;29;20205;-69
2022/03/30 01:28:13;;;;;;;1.80;1.20;;;;;;;;;;4955983;29;20230;-69
2022/03/30 01:33:26;;;;;;;0.10;0.10;;;;;;;;;;4955780;29;20202;-70
2022/03/30 01:35:55;;;;;;;1.80;1.70;;;;;;;;;;4955654;29;20282;-70
2022/03/30 01:38:23;;;;;;;0.90;0.90;;;;;;;;;;4955732;29;20195;-70
2022/03/30 01:40:50;;;;;;;0.40;0.40;;;;;;;;;;4955402;29;20232;-70
2022/03/30 01:43:18;;;;;;;1.13;0.20;;;;;;;;;;4955724;29;20680;-70
2022/03/30 01:45:45;;;;;;;2.00;1.17;;;;;;;;;;4955592;29;20199;-70
2022/03/30 01:48:13;;;;;;;1.90;1.80;;;;;;;;;;4955397;29;20195;-70
2022/03/30 01:50:40;;;;;;;0.93;0.93;;;;;;;;;;4955092;29;20195;-70
2022/03/30 01:53:09;;;;;;;3.63;1.93;;;;;;;;;;4955622;29;20544;-70
2022/03/30 01:55:36;;;;;;;1.57;1.47;;;;;;;;;;4955426;29;20195;-70
2022/03/30 01:58:05;;;;;;;4.20;2.43;;;;;;;;;;4955279;29;20537;-70
2022/03/30 02:00:32;;;;;;;1.90;1.60;;;;;;;;;;4955021;29;20755;-70
2022/03/30 02:03:00;;;;;;;3.00;1.37;;;;;;;;;;4955122;29;20195;-69
2022/03/30 02:05:28;;;;;;;1.57;1.43;;;;;;;;;;4955037;29;20239;-69
2022/03/30 02:07:56;;;;;;;12.20;1.77;;;;;;;;;;4955254;29;20199;-69
2022/03/30 02:10:25;;;;;;;1.40;0.27;;;;;;;;;;4955358;28;20199;-69
2022/03/30 02:12:53;;;;;;;0.37;0.37;;;;;;;;;;4954326;28;20195;-69
2022/03/30 02:15:22;;;;;;;0.00;0.00;;;;;;;;;;4954938;29;20652;-69
2022/03/30 02:17:50;;;;;;;0.70;0.70;;;;;;;;;;4954966;29;20281;-69
2022/03/30 02:20:18;;;;;;;0.63;0.63;;;;;;;;;;4954740;29;20597;-69
2022/03/30 02:22:46;;;;;;;0.43;0.40;;;;;;;;;;4954568;29;20195;-69
2022/03/30 02:25:13;;;;;;;2.23;2.00;;;;;;;;;;4954721;29;20195;-69
2022/03/30 02:27:42;;;;;;;3.20;1.50;;;;;;;;;;4954637;29;20199;-69
2022/03/30 02:30:10;;;;;;;3.00;2.70;;;;;;;;;;4954569;29;20649;-69
2022/03/30 02:32:40;;;;;;;1.23;0.93;;;;;;;;;;4954359;29;20199;-69
2022/03/30 02:35:08;;;;;;;3.83;1.70;;;;;;;;;;4954998;28;20203;-69
2022/03/30 02:37:36;;;;;;;0.90;0.80;;;;;;;;;;4954749;29;20556;-69
2022/03/30 02:40:03;;;;;;;0.00;0.00;;;;;;;;;;4954401;29;20313;-69
2022/03/30 02:42:31;;;;;;;1.77;0.77;;;;;;;;;;4954670;29;20637;-70
2022/03/30 02:45:00;;;;;;;0.43;0.43;;;;;;;;;;4954410;29;20222;-70
2022/03/30 02:50:13;;;;;;;0.10;0.10;;;;;;;;;;4954431;29;20249;-70
2022/03/30 02:52:40;;;;;;;1.03;0.60;;;;;;;;;;4954196;29;20254;-70
2022/03/30 02:55:08;;;;;;;1.47;1.37;;;;;;;;;;4954196;29;20197;-70
2022/03/30 02:57:35;;;;;;;0.30;0.30;;;;;;;;;;4954307;29;20195;-69
2022/03/30 03:00:05;;;;;;;0.00;0.00;;;;;;;;;;4954455;29;20231;-69
2022/03/30 03:02:33;;;;;;;3.47;1.80;;;;;;;;;;4953868;29;20199;-69
2022/03/30 03:05:00;;;;;;;0.20;0.20;;;;;;;;;;4954056;29;20233;-69
2022/03/30 03:07:28;;;;;;;1.00;0.70;;;;;;;;;;4954339;29;20195;-69
2022/03/30 03:09:56;;;;;;;0.37;0.37;;;;;;;;;;4954174;29;20238;-69
2022/03/30 03:12:24;;;;;;;0.37;0.37;;;;;;;;;;4954370;29;20199;-68
2022/03/30 03:14:51;;;;;;;0.73;0.73;;;;;;;;;;4954064;29;20471;-69
2022/03/30 03:17:20;;;;;;;0.93;0.57;;;;;;;;;;4954092;29;20202;-69
2022/03/30 03:19:48;;;;;;;2.03;1.63;;;;;;;;;;4954029;29;20229;-69
2022/03/30 03:22:15;;;;;;;0.00;0.00;;;;;;;;;;4953971;29;20552;-71
2022/03/30 03:24:43;;;;;;;1.53;1.43;;;;;;;;;;4953795;28;20199;-69
2022/03/30 03:27:10;;;;;;;0.27;0.10;;;;;;;;;;4958584;29;20603;-69
2022/03/30 03:29:38;;;;;;;1.30;1.07;;;;;;;;;;4958065;29;20291;-70
2022/03/30 03:32:06;;;;;;;0.40;0.40;;;;;;;;;;4958037;29;20199;-70
2022/03/30 03:34:35;;;;;;;0.57;0.10;;;;;;;;;;4957865;29;20195;-70
2022/03/30 03:37:03;;;;;;;0.10;0.10;;;;;;;;;;4957636;29;20663;-69
2022/03/30 03:39:31;;;;;;;3.53;2.57;;;;;;;;;;4957738;29;20751;-70
2022/03/30 03:41:58;;;;;;;0.50;0.47;;;;;;;;;;4957698;29;20744;-69
2022/03/30 03:44:25;;;;;;;0.20;0.20;;;;;;;;;;4957759;29;20205;-69
2022/03/30 03:46:54;;;;;;;0.00;0.00;;;;;;;;;;4957442;29;20195;-70
2022/03/30 03:49:22;;;;;;;1.03;1.03;;;;;;;;;;4957529;29;20195;-70
2022/03/30 03:51:51;;;;;;;2.00;1.70;;;;;;;;;;4957426;29;20313;-69
2022/03/30 03:54:18;;;;;;;0.50;0.47;;;;;;;;;;4957460;29;20206;-69
2022/03/30 03:56:46;;;;;;;2.10;1.33;;;;;;;;;;4957440;28;20190;-69
2022/03/30 03:59:13;;;;;;;0.00;0.00;;;;;;;;;;4957441;29;20222;-70
2022/03/30 04:01:41;;;;;;;2.30;2.13;;;;;;;;;;4957259;29;20309;-69
2022/03/30 04:04:08;;;;;;;3.50;0.47;;;;;;;;;;4957072;29;20245;-69
2022/03/30 04:06:36;;;;;;;3.93;2.00;;;;;;;;;;4957077;29;20205;-69
2022/03/30 04:09:05;;;;;;;1.57;0.50;;;;;;;;;;4957202;29;20195;-70
2022/03/30 04:11:33;;;;;;;3.63;1.80;;;;;;;;;;4957105;29;20195;-70
2022/03/30 04:14:00;;;;;;;1.33;1.23;;;;;;;;;;4957188;29;20202;-70
2022/03/30 04:16:28;;;;;;;1.13;1.10;;;;;;;;;;4957028;29;20191;-71
2022/03/30 04:18:56;;;;;;;2.77;1.17;;;;;;;;;;4957294;29;20265;-69
2022/03/30 04:21:23;;;;;;;2.07;1.87;;;;;;;;;;4957155;29;20231;-69
2022/03/30 04:23:51;;;;;;;3.40;2.60;;;;;;;;;;4957000;29;20203;-70
2022/03/30 04:26:20;;;;;;;2.30;2.10;;;;;;;;;;4956941;29;20198;-70
2022/03/30 04:28:47;;;;;;;2.47;2.27;;;;;;;;;;4956789;29;20580;-70
2022/03/30 04:31:15;;;;;;;0.43;0.33;;;;;;;;;;4956761;29;20223;-70
2022/03/30 04:33:43;;;;;;;0.00;0.00;;;;;;;;;;4956773;29;20198;-69
2022/03/30 04:36:11;;;;;;;0.37;0.30;;;;;;;;;;4956377;28;20206;-70
2022/03/30 04:38:39;;;;;;;0.10;0.10;;;;;;;;;;4956643;29;20210;-70
2022/03/30 04:41:07;;;;;;;3.57;1.07;;;;;;;;;;4956705;29;20225;-70
2022/03/30 04:43:35;;;;;;;2.00;1.37;;;;;;;;;;4956475;29;20648;-70
2022/03/30 04:46:03;;;;;;;3.33;2.17;;;;;;;;;;4956532;29;20200;-70
2022/03/30 04:48:30;;;;;;;4.10;3.70;;;;;;;;;;4956423;29;20207;-70
2022/03/30 04:50:58;;;;;;;3.20;2.80;;;;;;;;;;4956458;29;20202;-69
2022/03/30 04:53:25;;;;;;;1.33;0.97;;;;;;;;;;4956435;29;20719;-70
2022/03/30 04:55:53;;;;;;;1.43;1.33;;;;;;;;;;4956333;29;20197;-70
2022/03/30 04:58:21;;;;;;;2.50;1.27;;;;;;;;;;4956238;29;20194;-69
2022/03/30 05:00:50;;;;;;;1.80;1.73;;;;;;;;;;4956242;29;20683;-69
2022/03/30 05:03:18;;;;;;;4.83;2.67;;;;;;;;;;4956376;29;20213;-69
2022/03/30 05:05:45;;;;;;;3.47;2.13;;;;;;;;;;4956005;29;20235;-69
2022/03/30 05:08:12;;;;;;;2.37;1.70;;;;;;;;;;4956242;29;20202;-70
2022/03/30 05:10:40;;;;;;;0.27;0.27;;;;;;;;;;4955932;29;20199;-71
2022/03/30 05:13:08;;;;;;;0.20;0.20;;;;;;;;;;4956308;29;20222;-70
2022/03/30 05:15:35;;;;;;;7.20;2.63;;;;;;;;;;4956169;29;20207;-69
2022/03/30 05:18:05;;;;;;;1.07;0.67;;;;;;;;;;4956179;29;20199;-69
2022/03/30 05:20:33;;;;;;;0.70;0.70;;;;;;;;;;4955675;29;20711;-70
2022/03/30 05:23:01;;;;;;;0.30;0.30;;;;;;;;;;4955942;29;20710;-70
2022/03/30 05:25:29;;;;;;;0.73;0.63;;;;;;;;;;4955759;29;20214;-70
2022/03/30 05:27:57;;;;;;;0.47;0.37;;;;;;;;;;4956208;29;20195;-70
2022/03/30 05:30:24;;;;;;;0.57;0.57;;;;;;;;;;4955814;29;20203;-69
2022/03/30 05:32:52;;;;;;;1.93;1.83;;;;;;;;;;4955530;29;20203;-70
2022/03/30 05:35:21;;;;;;;0.83;0.83;;;;;;;;;;4955725;29;20207;-70
2022/03/30 05:37:49;;;;;;;2.10;1.57;;;;;;;;;;4955716;29;20203;-69
2022/03/30 05:40:17;;;;;;;3.90;2.57;;;;;;;;;;4955490;29;20210;-69
2022/03/30 05:42:44;;;;;;;3.10;2.80;;;;;;;;;;4955442;29;20233;-69
2022/03/30 05:45:12;;;;;;;0.47;0.47;;;;;;;;;;4955657;29;20195;-70
2022/03/30 05:47:40;;;;;;;1.80;1.20;;;;;;;;;;4954879;28;20199;-70
2022/03/30 05:50:09;;;;;;;1.47;1.40;;;;;;;;;;4955368;29;20588;-70
2022/03/30 05:52:38;;;;;;;2.67;1.43;;;;;;;;;;4955306;29;20203;-69
2022/03/30 05:55:06;;;;;;;1.53;0.90;;;;;;;;;;4955261;29;20202;-69
2022/03/30 05:57:34;;;;;;;0.10;0.10;;;;;;;;;;4955216;29;20202;-70
2022/03/30 06:00:01;;;;;;;0.33;0.33;;;;;;;;;;4955294;29;20199;-71
2022/03/30 06:02:29;;;;;;;2.50;2.30;;;;;;;;;;4955297;29;20222;-71
2022/03/30 06:04:57;;;;;;;0.10;0.10;;;;;;;;;;4954720;29;20708;-70
2022/03/30 06:07:25;;;;;;;1.00;0.63;;;;;;;;;;4955232;29;20198;-70
2022/03/30 06:09:55;;;;;;;0.53;0.53;;;;;;;;;;4955028;29;20652;-71
2022/03/30 06:12:24;;;;;;;0.83;0.83;;;;;;;;;;4954948;29;20195;-70
2022/03/30 06:14:53;;;;;;;1.23;1.13;;;;;;;;;;4954882;29;20281;-70
2022/03/30 06:17:21;;;;;;;0.20;0.20;;;;;;;;;;4954869;29;20195;-70
2022/03/30 06:19:49;;;;;;;0.63;0.37;;;;;;;;;;4954768;29;20195;-70
2022/03/30 06:22:17;;;;;;;0.87;0.40;;;;;;;;;;4954871;29;20231;-70
2022/03/30 06:24:44;;;;;;;0.73;0.67;;;;;;;;;;4954581;29;20195;-71
2022/03/30 06:27:14;;;;;;;1.40;1.17;;;;;;;;;;4954749;29;20191;-70
2022/03/30 06:29:42;;;;;;;2.10;1.17;;;;;;;;;;4954608;29;20194;-70
2022/03/30 12:01:56;;;;;;;1.03;0.70;;;;;;;;;;5110151;27;20541;-70
2022/03/30 12:04:25;;;;;;;0.20;0.20;;;;;;;;;;5110397;28;20199;-69
2022/03/30 12:06:52;;;;;;;1.00;0.93;;;;;;;;;;5109811;28;20189;-69
2022/03/30 12:09:20;;;;;;;2.80;1.93;;;;;;;;;;5109903;28;20217;-70
2022/03/30 12:11:48;;;;;;;0.87;0.87;;;;;;;;;;5109840;28;20200;-69
2022/03/30 12:14:25;;;;;;;0.38;0.20;;;;;;;;;;5110015;28;20718;-69
2022/03/30 12:16:53;;;;;;;2.40;2.20;;;;;;;;;;5109594;28;20284;-69
2022/03/30 12:19:22;;;;;;;0.10;0.10;;;;;;;;;;5109795;28;20190;-67
2022/03/30 12:21:49;;;;;;;6.50;3.73;;;;;;;;;;5109654;28;20225;-67
2022/03/30 12:24:22;;;;;;;1.10;1.00;;;;;;;;;;5109614;28;20190;-69
2022/03/30 12:26:53;;;;;;;1.90;0.53;;;;;;;;;;5109449;28;20200;-68
2022/03/30 12:29:21;;;;;;;0.53;0.53;;;;;;;;;;5109760;28;20189;-68
2022/03/30 12:31:53;;;;;;;1.90;1.60;;;;;;;;;;5109839;28;20210;-69
2022/03/30 12:34:23;;;;;;;2.07;0.70;;;;;;;;;;5109422;28;20225;-71
2022/03/30 12:36:53;;;;;;;2.20;1.87;;;;;;;;;;5109584;28;20200;-70
2022/03/30 12:39:21;;;;;;;0.73;0.73;;;;;;;;;;5109358;28;20673;-71
2022/03/30 12:41:58;;;;;;;0.87;0.63;;;;;;;;;;5109233;28;20225;-71
2022/03/30 12:44:28;;;;;;;2.87;1.87;;;;;;;;;;5109423;28;20535;-71
2022/03/30 12:46:58;;;;;;;0.97;0.97;;;;;;;;;;5108988;28;20250;-69
2022/03/30 12:49:34;;;;;;;0.40;0.40;;;;;;;;;;5109264;28;20601;-69
2022/03/30 12:52:09;;;;;;;0.10;0.10;;;;;;;;;;5109207;28;20280;-68
2022/03/30 12:54:37;;;;;;;2.30;0.97;;;;;;;;;;5109332;28;20197;-68
2022/03/30 12:57:04;;;;;;;10.67;6.77;;;;;;;;;;5108997;28;20194;-69
2022/03/30 12:59:32;;;;;;;0.47;0.47;;;;;;;;;;5108744;28;20553;-68
2022/03/30 13:02:00;;;;;;;4.70;2.80;;;;;;;;;;5109191;28;20231;-67
2022/03/30 13:04:30;;;;;;;0.43;0.43;;;;;;;;;;5109178;28;20240;-69
2022/03/30 13:07:09;;;;;;;0.08;0.08;;;;;;;;;;5108854;28;20190;-67
2022/03/30 13:09:37;;;;;;;2.53;2.33;;;;;;;;;;5108971;28;20230;-67
2022/03/30 13:12:05;;;;;;;0.63;0.63;;;;;;;;;;5101750;28;20199;-68
2022/03/30 13:14:32;;;;;;;4.95;1.80;;;;;;;;;;5095209;28;20190;-67
2022/03/30 13:17:02;;;;;;;2.03;1.33;;;;;;;;;;5095076;28;20251;-67
2022/03/30 13:19:30;;;;;;;2.37;1.50;;;;;;;;;;5095210;28;20283;-67
2022/03/30 13:21:59;;;;;;;1.40;1.00;;;;;;;;;;5094984;28;20226;-67
2022/03/30 13:24:30;;;;;;;0.20;0.20;;;;;;;;;;5094868;28;20236;-68
2022/03/30 13:27:00;;;;;;;0.23;0.23;;;;;;;;;;5094935;28;20573;-67
2022/03/30 13:29:27;;;;;;;2.33;2.13;;;;;;;;;;5094837;28;20198;-67
2022/03/30 13:31:55;;;;;;;3.70;0.63;;;;;;;;;;5094804;28;20524;-70
2022/03/30 13:34:23;;;;;;;1.77;1.63;;;;;;;;;;5094684;28;20280;-70
2022/03/30 13:36:50;;;;;;;1.30;1.20;;;;;;;;;;5094665;28;20757;-70
2022/03/30 13:39:20;;;;;;;0.67;0.53;;;;;;;;;;5094681;28;20198;-70
2022/03/30 13:41:50;;;;;;;2.00;1.27;;;;;;;;;;5094698;28;20226;-69
2022/03/30 13:44:18;;;;;;;0.87;0.87;;;;;;;;;;5094983;28;20198;-70
2022/03/30 13:46:47;;;;;;;1.57;0.47;;;;;;;;;;5094232;28;20202;-70
2022/03/30 13:49:15;;;;;;;1.70;1.30;;;;;;;;;;5094199;28;20194;-69
2022/03/30 13:51:43;;;;;;;0.57;0.57;;;;;;;;;;5094353;28;20204;-71
2022/03/30 13:54:10;;;;;;;3.10;1.80;;;;;;;;;;5094390;28;20194;-71
2022/03/30 13:56:38;;;;;;;0.00;0.00;;;;;;;;;;5094026;28;20194;-70
2022/03/30 13:59:06;;;;;;;1.63;1.53;;;;;;;;;;5094329;28;20190;-69
2022/03/30 14:01:34;;;;;;;0.00;0.00;;;;;;;;;;5094098;28;20230;-69
2022/03/30 14:04:03;;;;;;;0.40;0.40;;;;;;;;;;5094223;28;20217;-69
2022/03/30 14:06:30;;;;;;;0.20;0.20;;;;;;;;;;5094579;28;20280;-69
2022/03/30 14:08:58;;;;;;;0.80;0.80;;;;;;;;;;5094335;28;20201;-70
2022/03/30 14:11:26;;;;;;;0.47;0.10;;;;;;;;;;5094073;28;20200;-70
2022/03/30 14:13:53;;;;;;;0.10;0.10;;;;;;;;;;5094862;28;20194;-69
2022/03/30 14:16:23;;;;;;;1.17;1.17;;;;;;;;;;5108498;28;20186;-68
2022/03/30 14:18:51;;;;;;;0.77;0.37;;;;;;;;;;5098742;28;21079;-68
2022/03/30 14:21:19;;;;;;;0.00;0.00;;;;;;;;;;5093994;28;20229;-68
2022/03/30 14:23:46;;;;;;;0.10;0.10;;;;;;;;;;5092984;28;20198;-69
2022/03/30 14:26:14;;;;;;;0.20;0.20;;;;;;;;;;5100874;28;20221;-68
2022/03/30 14:28:45;;;;;;;0.43;0.23;;;;;;;;;;5109180;28;20183;-66
2022/03/30 14:31:16;;;;;;;0.50;0.07;;;;;;;;;;5109768;28;20243;-67
2022/03/30 14:33:45;;;;;;;1.10;1.00;;;;;;;;;;5107956;28;20187;-68
2022/03/30 14:36:13;;;;;;;0.10;0.10;;;;;;;;;;5093776;28;20190;-68
2022/03/30 14:38:41;;;;;;;0.30;0.27;;;;;;;;;;5093544;28;20197;-68
2022/03/30 14:41:08;;;;;;;0.50;0.50;;;;;;;;;;5093468;28;20261;-69
2022/03/30 14:43:39;;;;;;;1.33;1.23;;;;;;;;;;5093488;28;20284;-68
2022/03/30 14:46:06;;;;;;;0.97;0.97;;;;;;;;;;5093451;28;20647;-69
2022/03/30 14:48:34;;;;;;;0.53;0.37;;;;;;;;;;5093335;28;20190;-68
2022/03/30 14:51:03;;;;;;;0.00;0.00;;;;;;;;;;5093536;28;20190;-68
2022/03/30 14:53:31;;;;;;;0.40;0.40;;;;;;;;;;5093504;28;20192;-68
2022/03/30 14:55:59;;;;;;;0.60;0.60;;;;;;;;;;5093148;28;20194;-68
2022/03/30 14:58:27;;;;;;;1.37;1.17;;;;;;;;;;5093468;28;20557;-67
2022/03/30 15:00:57;;;;;;;0.00;0.00;;;;;;;;;;5092615;28;20234;-68
2022/03/30 15:03:25;;;;;;;0.27;0.27;;;;;;;;;;5093304;28;20247;-67
2022/03/30 15:05:54;;;;;;;0.00;0.00;;;;;;;;;;5093091;28;20228;-67
2022/03/30 15:08:23;;;;;;;0.00;0.00;;;;;;;;;;5092921;28;20662;-69
2022/03/30 15:10:54;;;;;;;1.23;1.13;;;;;;;;;;5092934;28;20690;-68
2022/03/30 15:13:21;;;;;;;0.30;0.30;;;;;;;;;;5093057;28;20271;-69
2022/03/30 15:15:49;;;;;;;1.67;1.57;;;;;;;;;;5092959;28;20190;-69
2022/03/30 15:18:16;;;;;;;0.00;0.00;;;;;;;;;;5093096;28;20198;-69
2022/03/30 15:20:44;;;;;;;1.67;1.57;;;;;;;;;;5092430;28;20198;-69
2022/03/30 15:23:12;;;;;;;0.10;0.10;;;;;;;;;;5092970;28;20208;-70
2022/03/30 15:25:41;;;;;;;0.00;0.00;;;;;;;;;;5093008;28;20194;-70
2022/03/30 15:28:08;;;;;;;0.00;0.00;;;;;;;;;;5092895;28;20212;-70
2022/03/30 15:30:37;;;;;;;1.23;1.17;;;;;;;;;;5092452;28;20307;-69
2022/03/30 15:33:05;;;;;;;1.23;1.13;;;;;;;;;;5093027;28;20556;-68
2022/03/30 15:35:33;;;;;;;0.20;0.20;;;;;;;;;;5092320;28;20221;-69
2022/03/30 15:38:01;;;;;;;1.00;1.00;;;;;;;;;;5092635;28;20651;-69
2022/03/30 15:40:29;;;;;;;0.57;0.57;;;;;;;;;;5092700;28;20273;-69
2022/03/30 15:43:01;;;;;;;0.43;0.43;;;;;;;;;;5092686;28;20194;-69
2022/03/30 15:45:29;;;;;;;0.00;0.00;;;;;;;;;;5092464;28;20272;-71
2022/03/30 15:47:57;;;;;;;1.60;0.20;;;;;;;;;;5092374;28;20190;-69
2022/03/30 15:50:25;;;;;;;0.47;0.47;;;;;;;;;;5092253;28;20197;-69
2022/03/30 15:52:53;;;;;;;0.83;0.83;;;;;;;;;;5092353;28;20221;-71
2022/03/30 15:55:22;;;;;;;0.30;0.30;;;;;;;;;;5092604;28;20194;-71
2022/03/30 15:57:50;;;;;;;0.00;0.00;;;;;;;;;;5092472;28;20282;-72
2022/03/30 16:00:19;;;;;;;0.20;0.20;;;;;;;;;;5092128;28;20236;-71
2022/03/30 16:02:47;;;;;;;0.73;0.73;;;;;;;;;;5091929;28;20186;-72
2022/03/30 16:05:14;;;;;;;0.20;0.17;;;;;;;;;;5092531;28;20197;-71
2022/03/30 16:10:26;;;;;;;0.63;0.17;;;;;;;;;;5092029;28;20666;-70
2022/03/30 16:12:52;;;;;;;0.00;0.00;;;;;;;;;;5091892;28;20232;-70
2022/03/30 16:15:22;;;;;;;0.47;0.47;;;;;;;;;;5092059;28;20284;-70
2022/03/30 16:17:51;;;;;;;0.07;0.07;;;;;;;;;;5092469;28;20311;-70
2022/03/30 16:20:22;;;;;;;1.13;0.83;;;;;;;;;;5092096;28;20760;-70
2022/03/30 16:22:50;;;;;;;0.10;0.10;;;;;;;;;;5092006;28;20213;-69
2022/03/30 16:25:18;;;;;;;0.13;0.13;;;;;;;;;;5091993;28;20655;-70
2022/03/30 16:27:46;;;;;;;0.30;0.30;;;;;;;;;;5092033;28;20197;-69
2022/03/30 16:30:15;;;;;;;0.57;0.57;;;;;;;;;;5092444;28;20531;-69
2022/03/30 16:32:45;;;;;;;0.10;0.10;;;;;;;;;;5091908;28;20324;-69
2022/03/30 16:35:14;;;;;;;0.20;0.20;;;;;;;;;;5092197;28;20232;-69
2022/03/30 16:37:42;;;;;;;0.63;0.37;;;;;;;;;;5092204;28;20205;-69
2022/03/30 16:40:10;;;;;;;0.33;0.30;;;;;;;;;;5091838;28;20197;-69
2022/03/30 16:42:39;;;;;;;0.00;0.00;;;;;;;;;;5091498;28;20199;-69
2022/03/30 16:45:07;;;;;;;0.83;0.83;;;;;;;;;;5092159;28;20222;-70
2022/03/30 16:47:35;;;;;;;1.07;0.80;;;;;;;;;;5094065;28;20202;-69
2022/03/30 16:50:04;;;;;;;0.00;0.00;;;;;;;;;;5095671;28;20677;-69
2022/03/30 16:52:32;;;;;;;0.00;0.00;;;;;;;;;;5095368;28;20630;-70
2022/03/30 16:54:59;;;;;;;0.00;0.00;;;;;;;;;;5095471;28;20198;-69
2022/03/30 16:57:27;;;;;;;0.13;0.13;;;;;;;;;;5095758;28;20276;-69
2022/03/30 16:59:55;;;;;;;0.20;0.20;;;;;;;;;;5095692;28;20585;-70
2022/03/30 17:02:23;;;;;;;0.03;0.03;;;;;;;;;;5095487;28;20200;-69
2022/03/30 17:04:51;;;;;;;0.00;0.00;;;;;;;;;;5095337;28;20194;-69
2022/03/30 17:07:20;;;;;;;0.17;0.17;;;;;;;;;;5095416;28;20207;-70
2022/03/30 17:10:00;;;;;;;0.00;0.00;;;;;;;;;;5095345;28;20190;-70
2022/03/30 17:12:31;;;;;;;0.00;0.00;;;;;;;;;;5095157;28;20702;-69
2022/03/30 17:14:59;;;;;;;0.00;0.00;;;;;;;;;;5095168;28;20711;-70
2022/03/30 17:17:27;;;;;;;0.00;0.00;;;;;;;;;;5095236;28;20277;-70
2022/03/30 17:19:56;;;;;;;0.00;0.00;;;;;;;;;;5095196;28;20186;-70
2022/03/30 17:22:26;;;;;;;0.00;0.00;;;;;;;;;;5095253;28;20198;-71
2022/03/30 17:24:54;;;;;;;0.60;0.57;;;;;;;;;;5095123;28;20220;-70
2022/03/30 17:27:22;;;;;;;0.00;0.00;;;;;;;;;;5095161;28;20190;-71
2022/03/30 17:29:50;;;;;;;0.40;0.40;;;;;;;;;;5095450;28;20600;-70
2022/03/30 17:32:18;;;;;;;0.10;0.10;;;;;;;;;;5094705;28;20226;-69
2022/03/30 17:34:48;;;;;;;0.00;0.00;;;;;;;;;;5094522;28;20191;-70
2022/03/30 17:37:17;;;;;;;0.00;0.00;;;;;;;;;;5095005;28;20194;-69
2022/03/30 17:39:48;;;;;;;0.00;0.00;;;;;;;;;;5094827;28;20655;-69
2022/03/30 17:42:22;;;;;;;0.00;0.00;;;;;;;;;;5094810;28;20221;-70
2022/03/30 17:44:50;;;;;;;0.93;0.20;;;;;;;;;;5094384;28;20193;-70
2022/03/30 17:47:18;;;;;;;0.00;0.00;;;;;;;;;;5094678;28;20228;-70
2022/03/30 17:52:32;;;;;;;0.00;0.00;;;;;;;;;;5094299;28;20226;-72
2022/03/30 17:55:01;;;;;;;0.10;0.10;;;;;;;;;;5094550;28;20243;-70
2022/03/30 17:57:29;;;;;;;0.00;0.00;;;;;;;;;;5094262;28;20199;-70
2022/03/30 17:59:56;;;;;;;0.07;0.07;;;;;;;;;;5094090;28;20195;-71
2022/03/30 18:02:24;;;;;;;2.37;1.87;;;;;;;;;;5094415;28;20244;-70
2022/03/30 18:04:51;;;;;;;0.00;0.00;;;;;;;;;;5094126;28;20186;-71
2022/03/30 18:07:19;;;;;;;0.00;0.00;;;;;;;;;;5094299;28;20191;-71
2022/03/30 18:09:46;;;;;;;0.00;0.00;;;;;;;;;;5094117;28;20194;-71
2022/03/30 18:12:15;;;;;;;0.00;0.00;;;;;;;;;;5093945;28;20229;-71
2022/03/30 18:14:47;;;;;;;0.00;0.00;;;;;;;;;;5094116;28;20622;-70
2022/03/30 18:17:15;;;;;;;0.00;0.00;;;;;;;;;;5094130;28;20194;-71
2022/03/30 18:19:43;;;;;;;0.00;0.00;;;;;;;;;;5094359;28;20620;-71
2022/03/30 18:22:11;;;;;;;0.00;0.00;;;;;;;;;;5093892;28;20226;-72
2022/03/30 18:24:39;;;;;;;0.00;0.00;;;;;;;;;;5093599;28;20635;-71
2022/03/30 18:27:09;;;;;;;0.00;0.00;;;;;;;;;;5093795;28;20202;-71
2022/03/30 18:29:38;;;;;;;0.00;0.00;;;;;;;;;;5093989;28;20323;-71
2022/03/30 18:32:06;;;;;;;0.00;0.00;;;;;;;;;;5094063;28;20218;-71
2022/03/30 18:34:33;;;;;;;0.00;0.00;;;;;;;;;;5093521;28;20190;-71
2022/03/30 18:37:01;;;;;;;0.00;0.00;;;;;;;;;;5093582;28;20551;-71
2022/03/30 18:39:29;;;;;;;0.03;0.03;;;;;;;;;;5093810;28;20243;-71
2022/03/30 18:41:59;;;;;;;0.00;0.00;;;;;;;;;;5093674;28;20200;-71
2022/03/30 18:44:26;;;;;;;0.20;0.20;;;;;;;;;;5093640;28;20198;-71
2022/03/30 18:46:55;;;;;;;0.00;0.00;;;;;;;;;;5093237;28;20186;-71
2022/03/30 18:49:23;;;;;;;0.00;0.00;;;;;;;;;;5093286;28;20191;-71
2022/03/30 18:51:52;;;;;;;0.10;0.10;;;;;;;;;;5093157;28;20229;-71
2022/03/30 18:54:20;;;;;;;0.00;0.00;;;;;;;;;;5093487;28;20194;-71
2022/03/30 18:56:47;;;;;;;0.90;0.90;;;;;;;;;;5093324;28;20186;-71
2022/03/30 18:59:15;;;;;;;0.00;0.00;;;;;;;;;;5093368;28;20194;-70
2022/03/30 19:01:42;;;;;;;0.00;0.00;;;;;;;;;;5093014;28;20586;-70
2022/03/30 19:04:11;;;;;;;0.00;0.00;;;;;;;;;;5093057;28;20190;-70
2022/03/30 19:06:39;;;;;;;0.00;0.00;;;;;;;;;;5093074;28;20197;-70
2022/03/30 19:09:13;;;;;;;0.00;0.00;;;;;;;;;;5093008;28;20190;-70
2022/03/30 19:11:41;;;;;;;0.10;0.10;;;;;;;;;;5092974;28;20208;-71
2022/03/30 19:14:08;;;;;;;0.00;0.00;;;;;;;;;;5093105;28;20597;-71
2022/03/30 19:16:36;;;;;;;0.00;0.00;;;;;;;;;;5092653;28;20186;-70
2022/03/30 19:19:04;;;;;;;0.33;0.33;;;;;;;;;;5092839;28;20190;-70
2022/03/30 19:21:33;;;;;;;0.00;0.00;;;;;;;;;;5093153;28;20200;-71
2022/03/30 19:24:00;;;;;;;0.00;0.00;;;;;;;;;;5092976;28;20538;-70
2022/03/30 19:26:28;;;;;;;0.07;0.07;;;;;;;;;;5092755;28;20190;-71
2022/03/30 19:28:55;;;;;;;0.00;0.00;;;;;;;;;;5092417;28;20198;-71
2022/03/30 19:31:24;;;;;;;0.00;0.00;;;;;;;;;;5092969;28;20190;-71
2022/03/30 19:33:52;;;;;;;0.00;0.00;;;;;;;;;;5092568;28;20583;-70
2022/03/30 19:36:20;;;;;;;0.00;0.00;;;;;;;;;;5092870;28;20212;-71
2022/03/30 19:38:49;;;;;;;0.00;0.00;;;;;;;;;;5092508;28;20187;-70
2022/03/30 19:41:17;;;;;;;0.00;0.00;;;;;;;;;;5092842;28;20268;-71
2022/03/30 19:43:46;;;;;;;0.50;0.50;;;;;;;;;;5092593;28;20198;-71
2022/03/30 19:46:14;;;;;;;0.00;0.00;;;;;;;;;;5092383;28;20256;-71
2022/03/30 19:48:42;;;;;;;0.00;0.00;;;;;;;;;;5092462;28;20209;-70
2022/03/30 19:51:09;;;;;;;0.00;0.00;;;;;;;;;;5092330;28;20237;-70
2022/03/30 19:53:37;;;;;;;0.00;0.00;;;;;;;;;;5092354;28;20222;-70
2022/03/30 19:56:07;;;;;;;0.00;0.00;;;;;;;;;;5092322;28;20186;-71
2022/03/30 19:58:35;;;;;;;0.00;0.00;;;;;;;;;;5092047;28;20198;-72
2022/03/30 20:01:03;;;;;;;0.00;0.00;;;;;;;;;;5091626;28;20226;-70
2022/03/30 20:03:32;;;;;;;0.00;0.00;;;;;;;;;;5092241;28;20193;-71
2022/03/30 20:06:00;;;;;;;0.00;0.00;;;;;;;;;;5092405;28;20195;-70
2022/03/30 20:08:27;;;;;;;0.00;0.00;;;;;;;;;;5092246;28;20202;-70
2022/03/30 20:10:55;;;;;;;1.90;1.80;;;;;;;;;;5091957;28;20198;-70
2022/03/30 20:13:23;;;;;;;0.00;0.00;;;;;;;;;;5092099;28;20224;-69
2022/03/30 20:15:51;;;;;;;0.00;0.00;;;;;;;;;;5092374;28;20198;-70
2022/03/30 20:18:20;;;;;;;0.50;0.50;;;;;;;;;;5092171;28;20190;-71
2022/03/30 20:20:48;;;;;;;0.00;0.00;;;;;;;;;;5092103;28;20195;-70
2022/03/30 20:23:16;;;;;;;0.27;0.27;;;;;;;;;;5095318;28;20190;-70
2022/03/30 20:25:43;;;;;;;0.00;0.00;;;;;;;;;;5096377;28;20289;-71
2022/03/30 20:28:13;;;;;;;0.00;0.00;;;;;;;;;;5096096;28;20539;-71
2022/03/30 20:30:42;;;;;;;0.00;0.00;;;;;;;;;;5096015;28;20190;-71